Sorrento, Florida
Current Conditions -  °F | °C
As of 3:53 PM on Tuesday 21 Oct 2014 (Local Time) from KLEE Reporting Station
Clear Clear  
Wind Chill: 81°   Ceiling: Unl
Heat Index: 82°   Visibility: 10mi
Dew Point: 64°   Wind: 5mph
Humidity: 56%   Direction: 300°WNW
Pressure: 29.92"   Gusts: NA
Location:  28.81°N, 81.56°W
Report Text: KLEE 211953Z AUTO 30004KT 10SM CLR 27/18 A2992 RMK AO2 SLP132 T02720178
Loading
Personal Weather Stations






























Interactive Weather Map
Tropical Storm Tracking
New forecast layout! Learn more

10-Day Weather Forecast

Advertisements
Track Severe Weather on mobile